createdAt,value
2022-08-03T00:00:44.108Z,6.80
2022-08-03T00:03:13.448Z,6.20
2022-08-03T00:06:03.929Z,6.35
2022-08-03T00:08:31.985Z,6.35
2022-08-03T00:11:02.015Z,7.15
2022-08-03T00:13:31.396Z,7.33
2022-08-03T00:16:00.919Z,6.95
2022-08-03T00:18:30.160Z,7.00
2022-08-03T00:20:59.582Z,6.57
2022-08-03T00:23:33.327Z,6.22
2022-08-03T00:26:18.273Z,6.33
2022-08-03T00:28:47.617Z,6.13
2022-08-03T00:31:16.926Z,6.05
2022-08-03T00:34:03.307Z,6.05
2022-08-03T00:36:32.992Z,6.60
2022-08-03T00:39:02.451Z,6.07
2022-08-03T00:41:31.738Z,6.22
2022-08-03T00:44:00.946Z,5.82
2022-08-03T00:46:30.252Z,6.15
2022-08-03T00:48:59.557Z,5.57
2022-08-03T00:51:29.096Z,5.67
2022-08-03T00:53:58.973Z,5.82
2022-08-03T00:56:29.085Z,5.95
2022-08-03T00:59:00.093Z,5.78
2022-08-03T01:01:32.476Z,5.25
2022-08-03T01:04:02.129Z,5.30
2022-08-03T01:06:42.821Z,5.15
2022-08-03T01:09:17.252Z,5.50
2022-08-03T01:12:00.673Z,5.70
2022-08-03T01:14:44.239Z,5.25
2022-08-03T01:17:22.568Z,5.10
2022-08-03T01:20:15.064Z,5.07
2022-08-03T01:23:10.133Z,4.90
2022-08-03T01:25:48.526Z,5.13
2022-08-03T01:28:44.883Z,4.50
2022-08-03T01:31:17.060Z,4.83
2022-08-03T01:33:51.086Z,4.75
2022-08-03T01:36:26.531Z,4.55
2022-08-03T01:39:02.498Z,4.68
2022-08-03T01:41:35.575Z,4.80
2022-08-03T01:44:28.013Z,4.10
2022-08-03T01:46:57.526Z,4.00
2022-08-03T01:49:26.857Z,4.30
2022-08-03T01:52:03.028Z,4.20
2022-08-03T01:54:39.642Z,3.92
2022-08-03T01:57:09.143Z,4.27
2022-08-03T01:59:39.735Z,4.43
2022-08-03T02:02:29.758Z,4.05
2022-08-03T02:05:01.113Z,4.30
2022-08-03T02:07:31.780Z,4.30
2022-08-03T02:10:02.013Z,4.27
2022-08-03T02:12:32.326Z,4.28
2022-08-03T02:15:02.323Z,3.75
2022-08-03T02:17:39.832Z,4.35
2022-08-03T02:20:13.789Z,4.38
2022-08-03T02:22:44.607Z,4.63
2022-08-03T02:25:15.811Z,3.97
2022-08-03T02:27:58.411Z,3.85
2022-08-03T02:30:35.575Z,3.72
2022-08-03T02:33:05.255Z,4.00
2022-08-03T02:35:35.295Z,4.20
2022-08-03T02:38:06.406Z,3.88
2022-08-03T02:40:36.319Z,3.65
2022-08-03T02:43:09.830Z,3.75
2022-08-03T02:45:45.645Z,3.85
2022-08-03T02:48:19.584Z,3.70
2022-08-03T02:50:50.238Z,3.22
2022-08-03T02:53:20.398Z,3.65
2022-08-03T02:55:50.702Z,3.97
2022-08-03T02:58:24.309Z,3.72
2022-08-03T03:00:57.159Z,4.03
2022-08-03T03:03:28.232Z,3.72
2022-08-03T03:06:01.775Z,3.53
2022-08-03T03:08:35.687Z,4.20
2022-08-03T03:11:09.947Z,3.90
2022-08-03T03:13:39.589Z,3.70
2022-08-03T03:16:09.327Z,4.25
2022-08-03T03:18:39.188Z,3.67
2022-08-03T03:21:11.853Z,3.83
2022-08-03T03:23:43.205Z,3.92
2022-08-03T03:26:12.737Z,3.43
2022-08-03T03:28:42.219Z,3.30
2022-08-03T03:31:12.269Z,3.63
2022-08-03T03:33:41.724Z,3.70
2022-08-03T03:36:11.186Z,3.60
2022-08-03T03:38:40.564Z,3.33
2022-08-03T03:41:11.077Z,4.00
2022-08-03T03:43:40.527Z,3.72
2022-08-03T03:46:09.948Z,2.90
2022-08-03T03:48:39.302Z,3.70
2022-08-03T03:51:10.523Z,3.40
2022-08-03T03:53:40.598Z,3.80
2022-08-03T03:56:10.016Z,3.50
2022-08-03T03:58:39.506Z,3.60
2022-08-03T04:01:10.001Z,3.50
2022-08-03T04:03:39.650Z,3.50
2022-08-03T04:06:27.013Z,3.63
2022-08-03T04:09:14.327Z,3.60
2022-08-03T04:11:55.651Z,3.55
2022-08-03T04:14:26.978Z,3.90
2022-08-03T04:17:04.483Z,3.10
2022-08-03T04:19:40.759Z,3.42
2022-08-03T04:22:13.938Z,3.28
2022-08-03T04:25:10.808Z,3.55
2022-08-03T04:27:42.935Z,3.65
2022-08-03T04:30:12.921Z,3.60
2022-08-03T04:32:45.957Z,3.85
2022-08-03T04:35:15.630Z,3.55
2022-08-03T04:37:50.324Z,3.45
2022-08-03T04:40:39.333Z,3.58
2022-08-03T04:43:11.155Z,3.77
2022-08-03T04:45:41.098Z,3.67
2022-08-03T04:48:10.512Z,3.63
2022-08-03T04:50:40.229Z,3.80
2022-08-03T04:53:10.233Z,3.65
2022-08-03T04:55:40.044Z,3.83
2022-08-03T04:58:09.385Z,3.70
2022-08-03T05:00:38.778Z,3.50
2022-08-03T05:03:23.485Z,4.07
2022-08-03T05:06:01.879Z,3.65
2022-08-03T05:08:46.895Z,3.87
2022-08-03T05:11:19.268Z,3.80
2022-08-03T05:13:48.719Z,4.25
2022-08-03T05:16:18.007Z,4.03
2022-08-03T05:18:47.351Z,3.88
2022-08-03T05:21:18.164Z,4.03
2022-08-03T05:23:47.439Z,4.00
2022-08-03T05:26:16.801Z,3.45
2022-08-03T05:28:51.046Z,4.15
2022-08-03T05:31:21.405Z,3.67
2022-08-03T05:33:50.877Z,3.97
2022-08-03T05:36:20.072Z,3.95
2022-08-03T05:38:49.255Z,3.70
2022-08-03T05:41:20.452Z,3.60
2022-08-03T05:43:59.424Z,3.88
2022-08-03T05:46:31.760Z,4.07
2022-08-03T05:49:01.447Z,3.65
2022-08-03T05:51:30.858Z,3.80
2022-08-03T05:54:00.431Z,3.67
2022-08-03T05:56:30.408Z,3.78
2022-08-03T05:59:11.391Z,4.23
2022-08-03T06:01:49.832Z,4.13
2022-08-03T06:04:19.391Z,3.58
2022-08-03T06:06:49.639Z,3.65
2022-08-03T06:09:19.603Z,3.78
2022-08-03T06:11:49.023Z,4.00
2022-08-03T06:17:03.868Z,2.90
2022-08-03T06:19:33.097Z,4.25
2022-08-03T06:22:02.335Z,3.55
2022-08-03T06:24:32.711Z,3.57
2022-08-03T06:27:02.076Z,3.60
2022-08-03T06:29:31.305Z,3.00
2022-08-03T06:32:00.616Z,3.90
2022-08-03T06:34:34.095Z,3.50
2022-08-03T06:37:04.893Z,3.70
2022-08-03T06:39:35.750Z,3.70
2022-08-03T06:42:05.439Z,3.25
2022-08-03T06:44:34.657Z,3.50
2022-08-03T06:47:04.397Z,3.25
2022-08-03T06:49:33.794Z,3.53
2022-08-03T06:52:06.884Z,3.25
2022-08-03T06:54:37.042Z,3.65
2022-08-03T06:57:06.864Z,3.17
2022-08-03T07:00:09.141Z,3.38
2022-08-03T07:02:28.379Z,3.17
2022-08-03T07:04:58.128Z,3.47
2022-08-03T07:07:27.479Z,3.10
2022-08-03T07:09:58.257Z,3.38
2022-08-03T07:12:29.243Z,3.13
2022-08-03T07:15:01.903Z,2.90
2022-08-03T07:17:33.799Z,2.85
2022-08-03T07:20:04.438Z,2.85
2022-08-03T07:22:33.759Z,2.80
2022-08-03T07:25:03.204Z,3.30
2022-08-03T07:27:32.686Z,3.03
2022-08-03T07:30:02.456Z,3.20
2022-08-03T07:32:32.675Z,3.05
2022-08-03T07:35:02.767Z,3.40
2022-08-03T07:37:38.008Z,3.28
2022-08-03T07:40:07.980Z,3.13
2022-08-03T07:42:37.772Z,3.33
2022-08-03T07:45:09.513Z,3.30
2022-08-03T07:47:46.176Z,2.90
2022-08-03T07:50:23.758Z,3.50
2022-08-03T07:52:54.880Z,3.17
2022-08-03T07:55:26.639Z,3.33
2022-08-03T07:58:06.181Z,3.55
2022-08-03T08:00:36.083Z,3.13
2022-08-03T08:03:05.792Z,3.22
2022-08-03T08:05:35.323Z,3.10
2022-08-03T08:08:05.368Z,5.05
2022-08-03T08:10:35.178Z,10.80
2022-08-03T08:13:05.190Z,9.30
2022-08-03T08:15:34.553Z,7.72
2022-08-03T08:18:05.044Z,6.37
2022-08-03T08:20:38.045Z,5.47
2022-08-03T08:23:27.626Z,5.90
2022-08-03T08:25:59.710Z,5.38
2022-08-03T08:28:33.498Z,4.95
2022-08-03T08:31:04.250Z,4.63
2022-08-03T08:34:01.472Z,4.20
2022-08-03T08:36:25.785Z,4.00
2022-08-03T08:38:55.086Z,3.97
2022-08-03T08:41:24.479Z,4.03
2022-08-03T08:44:03.502Z,4.20
2022-08-03T08:46:36.962Z,4.25
2022-08-03T08:49:06.758Z,3.70
2022-08-03T08:51:54.427Z,4.88
2022-08-03T08:54:35.555Z,3.63
2022-08-03T08:57:21.361Z,3.50
2022-08-03T08:59:59.124Z,3.20
2022-08-03T09:02:32.169Z,3.20
2022-08-03T09:05:06.851Z,3.50
2022-08-03T09:07:36.893Z,3.65
2022-08-03T09:10:12.952Z,3.10
2022-08-03T09:12:50.899Z,3.30
2022-08-03T09:15:26.569Z,3.50
2022-08-03T09:17:58.442Z,3.08
2022-08-03T09:20:30.287Z,3.65
2022-08-03T09:23:09.045Z,3.40
2022-08-03T09:25:48.158Z,3.15
2022-08-03T09:28:52.774Z,3.15
2022-08-03T09:31:10.048Z,3.50
2022-08-03T09:33:50.221Z,3.63
2022-08-03T09:36:46.121Z,3.37
2022-08-03T09:39:19.506Z,3.95
2022-08-03T09:42:23.569Z,3.50
2022-08-03T09:44:54.248Z,3.83
2022-08-03T09:47:34.899Z,3.75
2022-08-03T09:50:07.715Z,3.70
2022-08-03T09:52:51.960Z,3.45
2022-08-03T09:56:35.081Z,3.53
2022-08-03T09:58:13.968Z,3.72
2022-08-03T10:00:59.986Z,3.40
2022-08-03T10:04:02.779Z,3.43
2022-08-03T10:06:29.331Z,3.45
2022-08-03T10:09:15.210Z,3.50
2022-08-03T10:11:45.669Z,3.60
2022-08-03T10:14:21.464Z,3.70
2022-08-03T10:16:51.388Z,3.40
2022-08-03T10:19:20.670Z,3.47
2022-08-03T10:21:52.813Z,3.78
2022-08-03T10:24:28.937Z,3.53
2022-08-03T10:27:09.892Z,3.47
2022-08-03T10:29:48.056Z,2.87
2022-08-03T10:32:27.679Z,3.65
2022-08-03T10:35:19.948Z,3.90
2022-08-03T10:38:16.297Z,3.35
2022-08-03T10:40:49.318Z,3.25
2022-08-03T10:43:52.823Z,3.40
2022-08-03T10:46:23.720Z,3.63
2022-08-03T10:48:54.085Z,3.85
2022-08-03T10:51:24.432Z,4.20
2022-08-03T10:53:55.855Z,3.95
2022-08-03T10:57:13.355Z,3.90
2022-08-03T10:59:52.319Z,4.10
2022-08-03T11:02:21.528Z,3.75
2022-08-03T11:05:33.420Z,4.00
2022-08-03T11:08:29.643Z,3.58
2022-08-03T11:11:04.504Z,3.37
2022-08-03T11:13:34.997Z,3.33
2022-08-03T11:16:08.570Z,3.58
2022-08-03T11:18:58.577Z,3.20
2022-08-03T11:21:51.688Z,2.80
2022-08-03T11:24:42.092Z,3.30
2022-08-03T11:27:20.741Z,3.40
2022-08-03T11:30:09.982Z,3.30
2022-08-03T11:32:46.842Z,3.78
2022-08-03T11:35:24.227Z,3.15
2022-08-03T11:38:05.331Z,3.30
2022-08-03T11:40:48.054Z,3.40
2022-08-03T11:43:32.344Z,2.75
2022-08-03T11:46:05.712Z,3.35
2022-08-03T11:48:48.436Z,2.97
2022-08-03T11:51:26.882Z,3.23
2022-08-03T11:54:01.680Z,2.83
2022-08-03T11:56:49.551Z,2.90
2022-08-03T11:59:22.543Z,3.17
2022-08-03T12:01:52.465Z,3.28
2022-08-03T12:04:21.835Z,3.07
2022-08-03T12:07:02.701Z,2.80
2022-08-03T12:09:32.183Z,2.80
2022-08-03T12:12:01.503Z,2.80
2022-08-03T12:14:48.862Z,2.80
2022-08-03T12:17:21.194Z,3.13
2022-08-03T12:19:50.626Z,2.70
2022-08-03T12:22:42.306Z,2.83
2022-08-03T12:25:12.320Z,3.20
2022-08-03T12:27:41.865Z,3.15
2022-08-03T12:30:12.144Z,3.27
2022-08-03T12:32:41.712Z,3.47
2022-08-03T12:35:11.396Z,3.40
2022-08-03T12:37:41.050Z,2.42
2022-08-03T12:40:15.186Z,3.00
2022-08-03T12:42:47.194Z,3.60
2022-08-03T12:45:24.857Z,3.17
2022-08-03T12:47:59.688Z,3.50
2022-08-03T12:50:28.932Z,3.40
2022-08-03T12:52:59.109Z,3.70
2022-08-03T12:55:57.284Z,3.37
2022-08-03T12:58:38.561Z,3.20
2022-08-03T13:01:10.839Z,3.13
2022-08-03T13:03:45.873Z,3.03
2022-08-03T13:06:25.376Z,3.40
2022-08-03T13:09:08.516Z,3.23
2022-08-03T13:11:55.523Z,3.25
2022-08-03T13:14:27.471Z,3.00
2022-08-03T13:16:56.875Z,3.53
2022-08-03T13:19:26.446Z,3.33
2022-08-03T13:22:03.954Z,2.77
2022-08-03T13:24:35.157Z,2.58
2022-08-03T13:28:01.698Z,2.95
2022-08-03T13:29:59.689Z,2.88
2022-08-03T13:32:29.214Z,2.95
2022-08-03T13:34:58.630Z,2.97
2022-08-03T13:37:28.486Z,2.78
2022-08-03T13:40:02.226Z,2.85
2022-08-03T13:42:34.040Z,3.28
2022-08-03T13:45:04.350Z,2.88
2022-08-03T13:47:33.873Z,3.33
2022-08-03T13:50:05.098Z,2.88
2022-08-03T13:52:38.817Z,3.08
2022-08-03T13:55:11.672Z,3.10
2022-08-03T13:58:03.731Z,2.83
2022-08-03T14:00:30.371Z,2.80
2022-08-03T14:03:17.596Z,3.60
2022-08-03T14:05:46.992Z,3.28
2022-08-03T14:08:17.095Z,3.30
2022-08-03T14:10:47.343Z,3.60
2022-08-03T14:13:20.201Z,3.67
2022-08-03T14:15:52.014Z,3.08
2022-08-03T14:18:28.384Z,3.25
2022-08-03T14:21:06.878Z,3.00
2022-08-03T14:23:39.419Z,3.20
2022-08-03T14:26:09.472Z,3.43
2022-08-03T14:28:43.323Z,3.53
2022-08-03T14:32:09.476Z,3.10
2022-08-03T14:34:02.623Z,3.83
2022-08-03T14:36:33.003Z,3.50
2022-08-03T14:39:04.105Z,3.40
2022-08-03T14:41:33.479Z,3.15
2022-08-03T14:44:02.852Z,3.10
2022-08-03T14:46:33.869Z,3.55
2022-08-03T14:50:30.778Z,3.17
2022-08-03T14:52:03.299Z,2.70
2022-08-03T14:54:39.019Z,3.08
2022-08-03T14:57:09.866Z,3.45
2022-08-03T14:59:55.561Z,3.40
2022-08-03T15:02:29.670Z,3.50
2022-08-03T15:04:59.098Z,3.50
2022-08-03T15:07:29.684Z,3.55
2022-08-03T15:09:59.004Z,3.28
2022-08-03T15:12:28.772Z,3.63
2022-08-03T15:15:02.660Z,3.58
2022-08-03T15:17:32.308Z,3.80
2022-08-03T15:20:23.356Z,3.47
2022-08-03T15:22:54.114Z,3.75
2022-08-03T15:26:27.885Z,3.20
2022-08-03T15:28:13.886Z,3.58
2022-08-03T15:30:43.548Z,3.87
2022-08-03T15:33:16.293Z,3.83
2022-08-03T15:35:46.263Z,3.63
2022-08-03T15:38:19.335Z,3.60
2022-08-03T15:40:48.872Z,4.13
2022-08-03T15:43:18.397Z,4.13
2022-08-03T15:46:12.669Z,3.85
2022-08-03T15:48:43.020Z,3.65
2022-08-03T15:51:17.194Z,3.97
2022-08-03T15:53:49.743Z,4.10
2022-08-03T15:56:20.344Z,4.20
2022-08-03T15:59:03.925Z,3.97
2022-08-03T16:01:43.761Z,4.47
2022-08-03T16:04:19.942Z,4.03
2022-08-03T16:06:49.701Z,3.72
2022-08-03T16:09:23.407Z,3.97
2022-08-03T16:12:15.741Z,3.83
2022-08-03T16:14:55.438Z,3.42
2022-08-03T16:17:25.706Z,3.40
2022-08-03T16:19:58.195Z,4.00
2022-08-03T16:22:28.009Z,4.13
2022-08-03T16:24:58.522Z,3.47
2022-08-03T16:27:56.804Z,3.70
2022-08-03T16:30:21.528Z,3.78
2022-08-03T16:32:54.851Z,3.95
2022-08-03T16:35:26.391Z,3.93
2022-08-03T16:37:56.485Z,4.10
2022-08-03T16:40:26.608Z,3.85
2022-08-03T16:42:56.027Z,3.72
2022-08-03T16:45:25.786Z,4.28
2022-08-03T16:48:01.575Z,3.83
2022-08-03T16:50:34.793Z,4.18
2022-08-03T16:53:09.162Z,4.15
2022-08-03T16:55:43.480Z,4.05
2022-08-03T16:58:41.322Z,4.57
2022-08-03T17:01:22.299Z,4.63
2022-08-03T17:04:01.438Z,4.65
2022-08-03T17:06:34.499Z,4.45
2022-08-03T17:09:08.334Z,4.45
2022-08-03T17:11:47.169Z,4.40
2022-08-03T17:14:21.913Z,4.70
2022-08-03T17:16:58.483Z,4.20
2022-08-03T17:19:27.877Z,4.55
2022-08-03T17:22:21.370Z,4.75
2022-08-03T17:24:59.880Z,4.38
2022-08-03T17:28:51.024Z,5.00
2022-08-03T17:30:48.007Z,4.82
2022-08-03T17:33:20.585Z,4.82
2022-08-03T17:35:54.663Z,4.90
2022-08-03T17:38:31.854Z,4.95
2022-08-03T17:41:10.826Z,5.17
2022-08-03T17:44:15.838Z,5.07
2022-08-03T17:47:03.122Z,5.10
2022-08-03T17:50:05.535Z,5.30
2022-08-03T17:52:42.469Z,5.50
2022-08-03T17:55:56.495Z,5.07
2022-08-03T17:58:35.608Z,5.50
2022-08-03T18:02:02.007Z,5.80
2022-08-03T18:04:15.076Z,5.72
2022-08-03T18:06:56.238Z,5.88
2022-08-03T18:10:05.801Z,5.47
2022-08-03T18:12:28.583Z,5.45
2022-08-03T18:15:07.663Z,5.38
2022-08-03T18:17:55.636Z,6.38
2022-08-03T18:20:34.156Z,6.43
2022-08-03T18:23:09.807Z,6.50
2022-08-03T18:25:50.059Z,6.07
2022-08-03T18:28:24.494Z,6.38
2022-08-03T18:30:56.837Z,6.82
2022-08-03T18:34:17.195Z,7.05
2022-08-03T18:36:30.404Z,6.13
2022-08-03T18:39:02.740Z,6.78
2022-08-03T18:41:35.077Z,6.75
2022-08-03T18:44:09.664Z,7.10
2022-08-03T18:47:17.418Z,6.28
2022-08-03T18:49:50.392Z,7.07
2022-08-03T18:52:27.637Z,6.38
2022-08-03T18:55:20.243Z,6.75
2022-08-03T18:58:17.607Z,7.13
2022-08-03T19:02:00.882Z,6.53
2022-08-03T19:04:38.224Z,7.00
2022-08-03T19:07:13.044Z,6.70
2022-08-03T19:09:50.857Z,6.97
2022-08-03T19:12:28.181Z,7.30
2022-08-03T19:17:53.127Z,7.00
2022-08-03T19:20:27.431Z,6.85
2022-08-03T19:22:58.796Z,6.90
2022-08-03T19:25:34.983Z,6.88
2022-08-03T19:28:07.235Z,7.00
2022-08-03T19:30:39.493Z,6.37
2022-08-03T19:33:13.887Z,6.40
2022-08-03T19:35:55.565Z,6.40
2022-08-03T19:38:29.431Z,7.10
2022-08-03T19:41:04.446Z,7.50
2022-08-03T19:43:49.571Z,7.10
2022-08-03T19:46:30.369Z,6.95
2022-08-03T19:49:10.572Z,7.30
2022-08-03T19:52:01.827Z,6.75
2022-08-03T19:54:54.600Z,6.70
2022-08-03T19:57:28.803Z,6.47
2022-08-03T19:59:59.463Z,7.38
2022-08-03T20:02:34.859Z,7.03
2022-08-03T20:05:04.450Z,6.03
2022-08-03T20:07:47.825Z,5.93
2022-08-03T20:10:19.904Z,6.07
2022-08-03T20:12:51.716Z,6.18
2022-08-03T20:15:30.904Z,5.13
2022-08-03T20:18:02.218Z,5.68
2022-08-03T20:20:35.366Z,5.38
2022-08-03T20:23:12.701Z,5.83
2022-08-03T20:25:58.152Z,6.22
2022-08-03T20:28:53.894Z,5.90
2022-08-03T20:31:36.045Z,5.90
2022-08-03T20:34:05.927Z,6.25
2022-08-03T20:36:36.288Z,5.43
2022-08-03T20:39:09.136Z,5.85
2022-08-03T20:41:40.198Z,5.93
2022-08-03T20:44:09.754Z,5.80
2022-08-03T20:46:53.470Z,6.60
2022-08-03T20:49:31.431Z,6.40
2022-08-03T20:52:18.606Z,6.10
2022-08-03T20:54:49.412Z,6.53
2022-08-03T20:57:19.942Z,6.50
2022-08-03T20:59:51.104Z,5.85
2022-08-03T21:02:29.671Z,6.23
2022-08-03T21:05:08.628Z,6.47
2022-08-03T21:08:06.901Z,6.50
2022-08-03T21:10:38.678Z,6.20
2022-08-03T21:16:12.410Z,6.50
2022-08-03T21:18:54.739Z,6.70
2022-08-03T21:21:25.887Z,5.68
2022-08-03T21:23:56.805Z,5.85
2022-08-03T21:26:28.100Z,5.35
2022-08-03T21:28:58.803Z,5.87
2022-08-03T21:31:28.475Z,6.25
2022-08-03T21:34:03.987Z,6.90
2022-08-03T21:36:36.511Z,6.13
2022-08-03T21:39:09.968Z,6.47
2022-08-03T21:41:41.442Z,6.53
2022-08-03T21:44:11.101Z,6.40
2022-08-03T21:46:43.254Z,5.72
2022-08-03T21:50:05.758Z,6.00
2022-08-03T21:52:07.189Z,6.05
2022-08-03T21:54:40.279Z,6.40
2022-08-03T21:57:33.432Z,6.60
2022-08-03T22:00:19.313Z,6.45
2022-08-03T22:02:54.803Z,5.88
2022-08-03T22:05:42.662Z,6.18
2022-08-03T22:08:16.495Z,6.43
2022-08-03T22:10:47.285Z,6.00
2022-08-03T22:13:42.874Z,6.32
2022-08-03T22:16:08.426Z,6.10
2022-08-03T22:18:41.386Z,6.07
2022-08-03T22:21:13.928Z,5.93
2022-08-03T22:23:52.549Z,6.28
2022-08-03T22:26:32.615Z,6.40
2022-08-03T22:29:09.590Z,6.65
2022-08-03T22:31:59.148Z,6.32
2022-08-03T22:34:29.357Z,6.47
2022-08-03T22:37:01.619Z,6.40
2022-08-03T22:39:32.267Z,6.68
2022-08-03T22:42:02.943Z,6.57
2022-08-03T22:44:32.709Z,6.60
2022-08-03T22:47:02.124Z,7.40
2022-08-03T22:49:31.615Z,6.38
2022-08-03T22:52:04.566Z,6.60
2022-08-03T22:54:35.050Z,6.45
2022-08-03T22:57:04.889Z,6.18
2022-08-03T22:59:39.046Z,6.60
2022-08-03T23:02:21.305Z,6.75
2022-08-03T23:04:56.410Z,6.15
2022-08-03T23:07:42.415Z,6.95
2022-08-03T23:10:14.290Z,6.20
2022-08-03T23:12:46.104Z,6.67
2022-08-03T23:15:16.323Z,6.88
2022-08-03T23:17:58.026Z,6.15
2022-08-03T23:20:29.234Z,6.70
2022-08-03T23:23:01.656Z,6.43
2022-08-03T23:25:31.438Z,6.93
2022-08-03T23:28:05.376Z,6.93
2022-08-03T23:30:38.766Z,7.13
2022-08-03T23:33:09.272Z,6.43
2022-08-03T23:36:27.738Z,6.85
2022-08-03T23:38:47.499Z,6.87
2022-08-03T23:41:17.484Z,5.60
2022-08-03T23:43:53.931Z,6.50
2022-08-03T23:46:24.350Z,6.53
2022-08-03T23:48:56.434Z,6.28
2022-08-03T23:51:44.466Z,5.43
2022-08-03T23:54:30.087Z,5.78
2022-08-03T23:57:15.898Z,5.35
2022-08-03T23:59:45.370Z,5.75
